sensor_id;sensor_type;location;lat;lon;timestamp;pressure;altitude;pressure_sealevel;temperature
71564;BMP180;59391;52.504;13.438;2024-01-11T00:00:37;102748.00;;;-0.40
71564;BMP180;59391;52.504;13.438;2024-01-11T00:03:03;102744.00;;;-0.40
71564;BMP180;59391;52.504;13.438;2024-01-11T00:05:29;102743.00;;;-0.40
71564;BMP180;59391;52.504;13.438;2024-01-11T00:07:54;102744.00;;;-0.40
71564;BMP180;59391;52.504;13.438;2024-01-11T00:10:20;102738.00;;;-0.40
71564;BMP180;59391;52.504;13.438;2024-01-11T00:12:47;102748.00;;;-0.50
71564;BMP180;59391;52.504;13.438;2024-01-11T00:15:13;102746.00;;;-0.50
71564;BMP180;59391;52.504;13.438;2024-01-11T00:17:38;102741.00;;;-0.50
71564;BMP180;59391;52.504;13.438;2024-01-11T00:20:05;102751.00;;;-0.50
71564;BMP180;59391;52.504;13.438;2024-01-11T00:22:31;102731.00;;;-0.60
71564;BMP180;59391;52.504;13.438;2024-01-11T00:24:57;102728.00;;;-0.60
71564;BMP180;59391;52.504;13.438;2024-01-11T00:27:23;102719.00;;;-0.70
71564;BMP180;59391;52.504;13.438;2024-01-11T00:29:48;102717.00;;;-0.70
71564;BMP180;59391;52.504;13.438;2024-01-11T00:32:14;102719.00;;;-0.80
71564;BMP180;59391;52.504;13.438;2024-01-11T00:34:40;102717.00;;;-0.90
71564;BMP180;59391;52.504;13.438;2024-01-11T00:37:05;102702.00;;;-0.90
71564;BMP180;59391;52.504;13.438;2024-01-11T00:39:31;102696.00;;;-1.00
71564;BMP180;59391;52.504;13.438;2024-01-11T00:41:56;102710.00;;;-1.00
71564;BMP180;59391;52.504;13.438;2024-01-11T00:44:22;102707.00;;;-1.00
71564;BMP180;59391;52.504;13.438;2024-01-11T00:46:48;102676.00;;;-1.00
71564;BMP180;59391;52.504;13.438;2024-01-11T00:49:14;102677.00;;;-1.10
71564;BMP180;59391;52.504;13.438;2024-01-11T00:51:39;102673.00;;;-1.10
71564;BMP180;59391;52.504;13.438;2024-01-11T00:54:05;102670.00;;;-1.10
71564;BMP180;59391;52.504;13.438;2024-01-11T00:56:31;102692.00;;;-1.10
71564;BMP180;59391;52.504;13.438;2024-01-11T00:58:56;102673.00;;;-1.10
71564;BMP180;59391;52.504;13.438;2024-01-11T01:01:22;102668.00;;;-1.10
71564;BMP180;59391;52.504;13.438;2024-01-11T01:03:47;102668.00;;;-1.10
71564;BMP180;59391;52.504;13.438;2024-01-11T01:06:13;102655.00;;;-1.10
71564;BMP180;59391;52.504;13.438;2024-01-11T01:08:39;102679.00;;;-1.20
71564;BMP180;59391;52.504;13.438;2024-01-11T01:11:04;102630.00;;;-1.20
71564;BMP180;59391;52.504;13.438;2024-01-11T01:13:30;102630.00;;;-1.20
71564;BMP180;59391;52.504;13.438;2024-01-11T01:15:56;102631.00;;;-1.20
71564;BMP180;59391;52.504;13.438;2024-01-11T01:18:21;102645.00;;;-1.20
71564;BMP180;59391;52.504;13.438;2024-01-11T01:20:47;102638.00;;;-1.20
71564;BMP180;59391;52.504;13.438;2024-01-11T01:23:12;102635.00;;;-1.20
71564;BMP180;59391;52.504;13.438;2024-01-11T01:25:38;102647.00;;;-1.20
71564;BMP180;59391;52.504;13.438;2024-01-11T01:28:04;102648.00;;;-1.20
71564;BMP180;59391;52.504;13.438;2024-01-11T01:30:30;102665.00;;;-1.20
71564;BMP180;59391;52.504;13.438;2024-01-11T01:32:55;102663.00;;;-1.20
71564;BMP180;59391;52.504;13.438;2024-01-11T01:35:21;102672.00;;;-1.20
71564;BMP180;59391;52.504;13.438;2024-01-11T01:37:47;102673.00;;;-1.20
71564;BMP180;59391;52.504;13.438;2024-01-11T01:40:13;102671.00;;;-1.20
71564;BMP180;59391;52.504;13.438;2024-01-11T01:42:45;102658.00;;;-1.20
71564;BMP180;59391;52.504;13.438;2024-01-11T01:45:12;102662.00;;;-1.30
71564;BMP180;59391;52.504;13.438;2024-01-11T01:47:40;102660.00;;;-1.30
71564;BMP180;59391;52.504;13.438;2024-01-11T01:50:10;102669.00;;;-1.30
71564;BMP180;59391;52.504;13.438;2024-01-11T01:52:39;102664.00;;;-1.30
71564;BMP180;59391;52.504;13.438;2024-01-11T01:55:09;102664.00;;;-1.30
71564;BMP180;59391;52.504;13.438;2024-01-11T01:57:36;102661.00;;;-1.30
71564;BMP180;59391;52.504;13.438;2024-01-11T02:00:04;102663.00;;;-1.30
71564;BMP180;59391;52.504;13.438;2024-01-11T02:02:32;102687.00;;;-1.30
71564;BMP180;59391;52.504;13.438;2024-01-11T02:05:00;102680.00;;;-1.30
71564;BMP180;59391;52.504;13.438;2024-01-11T02:07:26;102680.00;;;-1.30
71564;BMP180;59391;52.504;13.438;2024-01-11T02:09:52;102687.00;;;-1.30
71564;BMP180;59391;52.504;13.438;2024-01-11T02:12:18;102692.00;;;-1.30
71564;BMP180;59391;52.504;13.438;2024-01-11T02:14:44;102704.00;;;-1.30
71564;BMP180;59391;52.504;13.438;2024-01-11T02:17:10;102699.00;;;-1.30
71564;BMP180;59391;52.504;13.438;2024-01-11T02:19:35;102700.00;;;-1.30
71564;BMP180;59391;52.504;13.438;2024-01-11T02:22:29;102702.00;;;-1.20
71564;BMP180;59391;52.504;13.438;2024-01-11T02:24:55;102692.00;;;-1.20
71564;BMP180;59391;52.504;13.438;2024-01-11T02:27:23;102694.00;;;-1.20
71564;BMP180;59391;52.504;13.438;2024-01-11T02:29:48;102695.00;;;-1.20
71564;BMP180;59391;52.504;13.438;2024-01-11T02:32:14;102678.00;;;-1.20
71564;BMP180;59391;52.504;13.438;2024-01-11T02:34:40;102698.00;;;-1.20
71564;BMP180;59391;52.504;13.438;2024-01-11T02:37:07;102689.00;;;-1.20
71564;BMP180;59391;52.504;13.438;2024-01-11T02:39:33;102680.00;;;-1.20
71564;BMP180;59391;52.504;13.438;2024-01-11T02:42:00;102688.00;;;-1.10
71564;BMP180;59391;52.504;13.438;2024-01-11T02:44:26;102701.00;;;-1.10
71564;BMP180;59391;52.504;13.438;2024-01-11T02:46:52;102673.00;;;-1.10
71564;BMP180;59391;52.504;13.438;2024-01-11T02:49:17;102676.00;;;-1.10
71564;BMP180;59391;52.504;13.438;2024-01-11T02:51:43;102661.00;;;-1.10
71564;BMP180;59391;52.504;13.438;2024-01-11T02:54:09;102648.00;;;-1.00
71564;BMP180;59391;52.504;13.438;2024-01-11T02:56:34;102644.00;;;-1.10
71564;BMP180;59391;52.504;13.438;2024-01-11T02:59:00;102648.00;;;-1.00
71564;BMP180;59391;52.504;13.438;2024-01-11T03:01:26;102663.00;;;-1.10
71564;BMP180;59391;52.504;13.438;2024-01-11T03:03:51;102653.00;;;-1.10
71564;BMP180;59391;52.504;13.438;2024-01-11T03:06:17;102660.00;;;-1.10
71564;BMP180;59391;52.504;13.438;2024-01-11T03:08:47;102663.00;;;-1.10
71564;BMP180;59391;52.504;13.438;2024-01-11T03:11:14;102667.00;;;-1.10
71564;BMP180;59391;52.504;13.438;2024-01-11T03:13:39;102677.00;;;-1.10
71564;BMP180;59391;52.504;13.438;2024-01-11T03:16:05;102668.00;;;-1.10
71564;BMP180;59391;52.504;13.438;2024-01-11T03:18:31;102675.00;;;-1.10
71564;BMP180;59391;52.504;13.438;2024-01-11T03:20:57;102671.00;;;-1.00
71564;BMP180;59391;52.504;13.438;2024-01-11T03:23:22;102649.00;;;-1.00
71564;BMP180;59391;52.504;13.438;2024-01-11T03:25:48;102664.00;;;-1.10
71564;BMP180;59391;52.504;13.438;2024-01-11T03:28:14;102650.00;;;-1.10
71564;BMP180;59391;52.504;13.438;2024-01-11T03:30:39;102662.00;;;-1.10
71564;BMP180;59391;52.504;13.438;2024-01-11T03:33:05;102662.00;;;-1.10
71564;BMP180;59391;52.504;13.438;2024-01-11T03:35:31;102661.00;;;-1.10
71564;BMP180;59391;52.504;13.438;2024-01-11T03:37:56;102647.00;;;-1.10
71564;BMP180;59391;52.504;13.438;2024-01-11T03:40:22;102646.00;;;-1.10
71564;BMP180;59391;52.504;13.438;2024-01-11T03:42:48;102629.00;;;-1.10
71564;BMP180;59391;52.504;13.438;2024-01-11T03:45:13;102635.00;;;-1.10
71564;BMP180;59391;52.504;13.438;2024-01-11T03:47:43;102628.00;;;-1.10
71564;BMP180;59391;52.504;13.438;2024-01-11T03:50:09;102622.00;;;-1.20
71564;BMP180;59391;52.504;13.438;2024-01-11T03:52:34;102620.00;;;-1.20
71564;BMP180;59391;52.504;13.438;2024-01-11T03:55:00;102621.00;;;-1.20
71564;BMP180;59391;52.504;13.438;2024-01-11T03:57:25;102614.00;;;-1.10
71564;BMP180;59391;52.504;13.438;2024-01-11T03:59:51;102610.00;;;-1.20
71564;BMP180;59391;52.504;13.438;2024-01-11T04:02:17;102605.00;;;-1.10
71564;BMP180;59391;52.504;13.438;2024-01-11T04:04:42;102611.00;;;-1.10
71564;BMP180;59391;52.504;13.438;2024-01-11T04:07:08;102601.00;;;-1.10
71564;BMP180;59391;52.504;13.438;2024-01-11T04:09:33;102620.00;;;-1.00
71564;BMP180;59391;52.504;13.438;2024-01-11T04:12:02;102597.00;;;-1.00
71564;BMP180;59391;52.504;13.438;2024-01-11T04:14:29;102614.00;;;-1.00
71564;BMP180;59391;52.504;13.438;2024-01-11T04:16:54;102601.00;;;-0.90
71564;BMP180;59391;52.504;13.438;2024-01-11T04:19:20;102605.00;;;-0.90
71564;BMP180;59391;52.504;13.438;2024-01-11T04:21:45;102598.00;;;-0.90
71564;BMP180;59391;52.504;13.438;2024-01-11T04:24:11;102593.00;;;-0.90
71564;BMP180;59391;52.504;13.438;2024-01-11T04:26:36;102621.00;;;-0.80
71564;BMP180;59391;52.504;13.438;2024-01-11T04:29:02;102619.00;;;-0.80
71564;BMP180;59391;52.504;13.438;2024-01-11T04:31:28;102622.00;;;-0.70
71564;BMP180;59391;52.504;13.438;2024-01-11T04:33:54;102605.00;;;-0.70
71564;BMP180;59391;52.504;13.438;2024-01-11T04:36:20;102613.00;;;-0.60
71564;BMP180;59391;52.504;13.438;2024-01-11T04:38:45;102598.00;;;-0.60
71564;BMP180;59391;52.504;13.438;2024-01-11T04:41:13;102618.00;;;-0.60
71564;BMP180;59391;52.504;13.438;2024-01-11T04:43:45;102629.00;;;-0.50
71564;BMP180;59391;52.504;13.438;2024-01-11T04:46:21;102626.00;;;-0.50
71564;BMP180;59391;52.504;13.438;2024-01-11T04:48:49;102621.00;;;-0.40
71564;BMP180;59391;52.504;13.438;2024-01-11T04:51:17;102612.00;;;-0.30
71564;BMP180;59391;52.504;13.438;2024-01-11T04:53:44;102593.00;;;-0.30
71564;BMP180;59391;52.504;13.438;2024-01-11T04:56:13;102586.00;;;-0.30
71564;BMP180;59391;52.504;13.438;2024-01-11T04:58:43;102596.00;;;-0.20
71564;BMP180;59391;52.504;13.438;2024-01-11T05:01:16;102582.00;;;-0.10
71564;BMP180;59391;52.504;13.438;2024-01-11T05:03:46;102571.00;;;-0.10
71564;BMP180;59391;52.504;13.438;2024-01-11T05:06:20;102575.00;;;-0.10
71564;BMP180;59391;52.504;13.438;2024-01-11T05:08:52;102547.00;;;0.00
71564;BMP180;59391;52.504;13.438;2024-01-11T05:11:19;102553.00;;;0.00
71564;BMP180;59391;52.504;13.438;2024-01-11T05:13:46;102577.00;;;0.00
71564;BMP180;59391;52.504;13.438;2024-01-11T05:16:31;102599.00;;;0.10
71564;BMP180;59391;52.504;13.438;2024-01-11T05:18:57;102602.00;;;0.20
71564;BMP180;59391;52.504;13.438;2024-01-11T05:21:24;102586.00;;;0.20
71564;BMP180;59391;52.504;13.438;2024-01-11T05:23:50;102568.00;;;0.20
71564;BMP180;59391;52.504;13.438;2024-01-11T05:26:17;102584.00;;;0.30
71564;BMP180;59391;52.504;13.438;2024-01-11T05:28:43;102590.00;;;0.30
71564;BMP180;59391;52.504;13.438;2024-01-11T05:31:11;102591.00;;;0.40
71564;BMP180;59391;52.504;13.438;2024-01-11T05:33:39;102591.00;;;0.40
71564;BMP180;59391;52.504;13.438;2024-01-11T05:36:05;102582.00;;;0.50
71564;BMP180;59391;52.504;13.438;2024-01-11T05:38:31;102570.00;;;0.60
71564;BMP180;59391;52.504;13.438;2024-01-11T05:40:57;102557.00;;;0.60
71564;BMP180;59391;52.504;13.438;2024-01-11T05:43:23;102573.00;;;0.70
71564;BMP180;59391;52.504;13.438;2024-01-11T05:45:49;102563.00;;;0.70
71564;BMP180;59391;52.504;13.438;2024-01-11T05:48:16;102553.00;;;0.70
71564;BMP180;59391;52.504;13.438;2024-01-11T05:50:43;102553.00;;;0.80
71564;BMP180;59391;52.504;13.438;2024-01-11T05:53:11;102561.00;;;0.80
71564;BMP180;59391;52.504;13.438;2024-01-11T05:55:36;102543.00;;;0.80
71564;BMP180;59391;52.504;13.438;2024-01-11T05:58:03;102564.00;;;0.90
71564;BMP180;59391;52.504;13.438;2024-01-11T06:00:28;102566.00;;;0.90
71564;BMP180;59391;52.504;13.438;2024-01-11T06:02:54;102560.00;;;1.00
71564;BMP180;59391;52.504;13.438;2024-01-11T06:05:20;102579.00;;;1.00
71564;BMP180;59391;52.504;13.438;2024-01-11T06:07:46;102568.00;;;1.00
71564;BMP180;59391;52.504;13.438;2024-01-11T06:10:11;102588.00;;;1.10
71564;BMP180;59391;52.504;13.438;2024-01-11T06:12:37;102584.00;;;1.10
71564;BMP180;59391;52.504;13.438;2024-01-11T06:15:03;102576.00;;;1.20
71564;BMP180;59391;52.504;13.438;2024-01-11T06:17:29;102547.00;;;1.20
71564;BMP180;59391;52.504;13.438;2024-01-11T06:19:55;102551.00;;;1.20
71564;BMP180;59391;52.504;13.438;2024-01-11T06:22:20;102541.00;;;1.20
71564;BMP180;59391;52.504;13.438;2024-01-11T06:24:46;102532.00;;;1.20
71564;BMP180;59391;52.504;13.438;2024-01-11T06:27:12;102561.00;;;1.20
71564;BMP180;59391;52.504;13.438;2024-01-11T06:29:37;102547.00;;;1.30
71564;BMP180;59391;52.504;13.438;2024-01-11T06:32:03;102566.00;;;1.30
71564;BMP180;59391;52.504;13.438;2024-01-11T06:34:29;102550.00;;;1.40
71564;BMP180;59391;52.504;13.438;2024-01-11T06:36:56;102569.00;;;1.40
71564;BMP180;59391;52.504;13.438;2024-01-11T06:39:21;102572.00;;;1.40
71564;BMP180;59391;52.504;13.438;2024-01-11T06:41:47;102560.00;;;1.40
71564;BMP180;59391;52.504;13.438;2024-01-11T06:44:13;102560.00;;;1.40
71564;BMP180;59391;52.504;13.438;2024-01-11T06:46:38;102537.00;;;1.50
71564;BMP180;59391;52.504;13.438;2024-01-11T06:49:09;102540.00;;;1.50
71564;BMP180;59391;52.504;13.438;2024-01-11T06:51:35;102538.00;;;1.50
71564;BMP180;59391;52.504;13.438;2024-01-11T06:54:01;102546.00;;;1.50
71564;BMP180;59391;52.504;13.438;2024-01-11T06:56:27;102544.00;;;1.50
71564;BMP180;59391;52.504;13.438;2024-01-11T06:58:54;102538.00;;;1.60
71564;BMP180;59391;52.504;13.438;2024-01-11T07:01:20;102533.00;;;1.60
71564;BMP180;59391;52.504;13.438;2024-01-11T07:03:46;102545.00;;;1.60
71564;BMP180;59391;52.504;13.438;2024-01-11T07:06:11;102524.00;;;1.60
71564;BMP180;59391;52.504;13.438;2024-01-11T07:08:38;102522.00;;;1.70
71564;BMP180;59391;52.504;13.438;2024-01-11T07:11:03;102527.00;;;1.70
71564;BMP180;59391;52.504;13.438;2024-01-11T07:13:30;102522.00;;;1.70
71564;BMP180;59391;52.504;13.438;2024-01-11T07:15:57;102531.00;;;1.70
71564;BMP180;59391;52.504;13.438;2024-01-11T07:18:24;102539.00;;;1.70
71564;BMP180;59391;52.504;13.438;2024-01-11T07:20:52;102535.00;;;1.80
71564;BMP180;59391;52.504;13.438;2024-01-11T07:23:17;102513.00;;;1.80
71564;BMP180;59391;52.504;13.438;2024-01-11T07:25:43;102537.00;;;1.80
71564;BMP180;59391;52.504;13.438;2024-01-11T07:28:09;102527.00;;;1.90
71564;BMP180;59391;52.504;13.438;2024-01-11T07:30:35;102519.00;;;1.90
71564;BMP180;59391;52.504;13.438;2024-01-11T07:33:01;102520.00;;;1.90
71564;BMP180;59391;52.504;13.438;2024-01-11T07:35:27;102526.00;;;1.90
71564;BMP180;59391;52.504;13.438;2024-01-11T07:37:53;102532.00;;;1.90
71564;BMP180;59391;52.504;13.438;2024-01-11T07:40:18;102535.00;;;2.00
71564;BMP180;59391;52.504;13.438;2024-01-11T07:42:44;102539.00;;;2.00
71564;BMP180;59391;52.504;13.438;2024-01-11T07:45:11;102527.00;;;2.00
71564;BMP180;59391;52.504;13.438;2024-01-11T07:47:38;102526.00;;;2.10
71564;BMP180;59391;52.504;13.438;2024-01-11T07:50:08;102541.00;;;2.00
71564;BMP180;59391;52.504;13.438;2024-01-11T07:52:38;102550.00;;;2.10
71564;BMP180;59391;52.504;13.438;2024-01-11T07:55:08;102535.00;;;2.10
71564;BMP180;59391;52.504;13.438;2024-01-11T07:57:35;102529.00;;;2.10
71564;BMP180;59391;52.504;13.438;2024-01-11T08:00:04;102529.00;;;2.20
71564;BMP180;59391;52.504;13.438;2024-01-11T08:02:32;102508.00;;;2.20
71564;BMP180;59391;52.504;13.438;2024-01-11T08:04:58;102518.00;;;2.20
71564;BMP180;59391;52.504;13.438;2024-01-11T08:07:26;102486.00;;;2.20
71564;BMP180;59391;52.504;13.438;2024-01-11T08:09:51;102527.00;;;2.20
71564;BMP180;59391;52.504;13.438;2024-01-11T08:12:17;102516.00;;;2.20
71564;BMP180;59391;52.504;13.438;2024-01-11T08:14:43;102519.00;;;2.20
71564;BMP180;59391;52.504;13.438;2024-01-11T08:17:10;102511.00;;;2.10
71564;BMP180;59391;52.504;13.438;2024-01-11T08:19:35;102522.00;;;2.20
71564;BMP180;59391;52.504;13.438;2024-01-11T08:22:01;102518.00;;;2.20
71564;BMP180;59391;52.504;13.438;2024-01-11T08:24:27;102523.00;;;2.20
71564;BMP180;59391;52.504;13.438;2024-01-11T08:26:53;102524.00;;;2.30
71564;BMP180;59391;52.504;13.438;2024-01-11T08:29:19;102520.00;;;2.30
71564;BMP180;59391;52.504;13.438;2024-01-11T08:31:46;102523.00;;;2.30
71564;BMP180;59391;52.504;13.438;2024-01-11T08:34:11;102531.00;;;2.30
71564;BMP180;59391;52.504;13.438;2024-01-11T08:36:37;102520.00;;;2.30
71564;BMP180;59391;52.504;13.438;2024-01-11T08:39:07;102524.00;;;2.30
71564;BMP180;59391;52.504;13.438;2024-01-11T08:41:34;102514.00;;;2.30
71564;BMP180;59391;52.504;13.438;2024-01-11T08:44:20;102485.00;;;2.30
71564;BMP180;59391;52.504;13.438;2024-01-11T08:46:46;102518.00;;;2.30
71564;BMP180;59391;52.504;13.438;2024-01-11T08:49:11;102518.00;;;2.30
71564;BMP180;59391;52.504;13.438;2024-01-11T08:51:38;102515.00;;;2.30
71564;BMP180;59391;52.504;13.438;2024-01-11T08:54:03;102511.00;;;2.40
71564;BMP180;59391;52.504;13.438;2024-01-11T08:56:29;102510.00;;;2.40
71564;BMP180;59391;52.504;13.438;2024-01-11T08:58:55;102515.00;;;2.40
71564;BMP180;59391;52.504;13.438;2024-01-11T09:01:21;102491.00;;;2.40
71564;BMP180;59391;52.504;13.438;2024-01-11T09:03:47;102494.00;;;2.40
71564;BMP180;59391;52.504;13.438;2024-01-11T09:06:16;102470.00;;;2.40
71564;BMP180;59391;52.504;13.438;2024-01-11T09:08:41;102451.00;;;2.40
71564;BMP180;59391;52.504;13.438;2024-01-11T09:11:07;102472.00;;;2.40
71564;BMP180;59391;52.504;13.438;2024-01-11T09:13:33;102470.00;;;2.50
71564;BMP180;59391;52.504;13.438;2024-01-11T09:15:58;102480.00;;;2.60
71564;BMP180;59391;52.504;13.438;2024-01-11T09:18:24;102470.00;;;2.60
71564;BMP180;59391;52.504;13.438;2024-01-11T09:20:50;102463.00;;;2.60
71564;BMP180;59391;52.504;13.438;2024-01-11T09:23:16;102467.00;;;2.60
71564;BMP180;59391;52.504;13.438;2024-01-11T09:25:42;102488.00;;;2.60
71564;BMP180;59391;52.504;13.438;2024-01-11T09:28:07;102495.00;;;2.60
71564;BMP180;59391;52.504;13.438;2024-01-11T09:30:33;102502.00;;;2.70
71564;BMP180;59391;52.504;13.438;2024-01-11T09:32:59;102498.00;;;2.70
71564;BMP180;59391;52.504;13.438;2024-01-11T09:35:24;102474.00;;;2.70
71564;BMP180;59391;52.504;13.438;2024-01-11T09:37:51;102489.00;;;2.80
71564;BMP180;59391;52.504;13.438;2024-01-11T09:40:18;102486.00;;;2.80
71564;BMP180;59391;52.504;13.438;2024-01-11T09:42:44;102460.00;;;2.80
71564;BMP180;59391;52.504;13.438;2024-01-11T09:45:14;102477.00;;;2.80
71564;BMP180;59391;52.504;13.438;2024-01-11T09:47:42;102500.00;;;2.80
71564;BMP180;59391;52.504;13.438;2024-01-11T09:50:10;102489.00;;;2.80
71564;BMP180;59391;52.504;13.438;2024-01-11T09:52:38;102497.00;;;2.80
71564;BMP180;59391;52.504;13.438;2024-01-11T09:55:13;102500.00;;;2.80
71564;BMP180;59391;52.504;13.438;2024-01-11T09:57:46;102500.00;;;2.80
71564;BMP180;59391;52.504;13.438;2024-01-11T10:00:22;102510.00;;;2.80
71564;BMP180;59391;52.504;13.438;2024-01-11T10:02:48;102486.00;;;2.80
71564;BMP180;59391;52.504;13.438;2024-01-11T10:05:17;102503.00;;;2.90
71564;BMP180;59391;52.504;13.438;2024-01-11T10:07:43;102508.00;;;2.90
71564;BMP180;59391;52.504;13.438;2024-01-11T10:10:09;102492.00;;;2.90
71564;BMP180;59391;52.504;13.438;2024-01-11T10:12:36;102487.00;;;2.90
71564;BMP180;59391;52.504;13.438;2024-01-11T10:15:11;102493.00;;;2.90
71564;BMP180;59391;52.504;13.438;2024-01-11T10:17:44;102501.00;;;2.90
71564;BMP180;59391;52.504;13.438;2024-01-11T10:20:14;102453.00;;;2.90
71564;BMP180;59391;52.504;13.438;2024-01-11T10:22:41;102479.00;;;2.90
71564;BMP180;59391;52.504;13.438;2024-01-11T10:25:15;102466.00;;;2.90
71564;BMP180;59391;52.504;13.438;2024-01-11T10:27:43;102456.00;;;2.90
71564;BMP180;59391;52.504;13.438;2024-01-11T10:30:11;102460.00;;;2.90
71564;BMP180;59391;52.504;13.438;2024-01-11T10:32:39;102452.00;;;3.00
71564;BMP180;59391;52.504;13.438;2024-01-11T10:35:05;102441.00;;;3.00
71564;BMP180;59391;52.504;13.438;2024-01-11T10:37:32;102460.00;;;3.00
71564;BMP180;59391;52.504;13.438;2024-01-11T10:40:05;102461.00;;;3.00
71564;BMP180;59391;52.504;13.438;2024-01-11T10:42:41;102460.00;;;3.10
71564;BMP180;59391;52.504;13.438;2024-01-11T10:45:16;102468.00;;;3.10
71564;BMP180;59391;52.504;13.438;2024-01-11T10:47:54;102475.00;;;3.10
71564;BMP180;59391;52.504;13.438;2024-01-11T10:50:25;102485.00;;;3.20
71564;BMP180;59391;52.504;13.438;2024-01-11T10:55:44;102478.00;;;3.20
71564;BMP180;59391;52.504;13.438;2024-01-11T10:58:12;102452.00;;;3.20
71564;BMP180;59391;52.504;13.438;2024-01-11T11:00:39;102464.00;;;3.20
71564;BMP180;59391;52.504;13.438;2024-01-11T11:03:05;102451.00;;;3.20
71564;BMP180;59391;52.504;13.438;2024-01-11T11:05:34;102447.00;;;3.30
71564;BMP180;59391;52.504;13.438;2024-01-11T11:08:04;102464.00;;;3.30
71564;BMP180;59391;52.504;13.438;2024-01-11T11:10:33;102452.00;;;3.20
71564;BMP180;59391;52.504;13.438;2024-01-11T11:13:00;102452.00;;;3.20
71564;BMP180;59391;52.504;13.438;2024-01-11T11:15:29;102458.00;;;3.20
71564;BMP180;59391;52.504;13.438;2024-01-11T11:17:56;102463.00;;;3.20
71564;BMP180;59391;52.504;13.438;2024-01-11T11:20:22;102477.00;;;3.20
71564;BMP180;59391;52.504;13.438;2024-01-11T11:23:07;102475.00;;;3.20
71564;BMP180;59391;52.504;13.438;2024-01-11T11:25:34;102481.00;;;3.20
71564;BMP180;59391;52.504;13.438;2024-01-11T11:28:00;102474.00;;;3.20
71564;BMP180;59391;52.504;13.438;2024-01-11T11:30:32;102466.00;;;3.30
71564;BMP180;59391;52.504;13.438;2024-01-11T11:33:18;102476.00;;;3.30
71564;BMP180;59391;52.504;13.438;2024-01-11T11:35:46;102499.00;;;3.30
71564;BMP180;59391;52.504;13.438;2024-01-11T11:38:41;102493.00;;;3.30
71564;BMP180;59391;52.504;13.438;2024-01-11T11:41:07;102488.00;;;3.30
71564;BMP180;59391;52.504;13.438;2024-01-11T11:43:33;102505.00;;;3.30
71564;BMP180;59391;52.504;13.438;2024-01-11T11:46:00;102488.00;;;3.30
71564;BMP180;59391;52.504;13.438;2024-01-11T11:53:36;102469.00;;;3.50
71564;BMP180;59391;52.504;13.438;2024-01-11T11:56:03;102463.00;;;3.50
71564;BMP180;59391;52.504;13.438;2024-01-11T11:58:30;102479.00;;;3.50
71564;BMP180;59391;52.504;13.438;2024-01-11T12:00:58;102473.00;;;3.60
71564;BMP180;59391;52.504;13.438;2024-01-11T12:03:33;102462.00;;;3.60
71564;BMP180;59391;52.504;13.438;2024-01-11T12:06:01;102465.00;;;3.60
71564;BMP180;59391;52.504;13.438;2024-01-11T12:08:27;102446.00;;;3.60
71564;BMP180;59391;52.504;13.438;2024-01-11T12:10:53;102451.00;;;3.70
71564;BMP180;59391;52.504;13.438;2024-01-11T12:13:19;102439.00;;;3.70
71564;BMP180;59391;52.504;13.438;2024-01-11T12:15:46;102454.00;;;3.70
71564;BMP180;59391;52.504;13.438;2024-01-11T12:18:12;102459.00;;;3.80
71564;BMP180;59391;52.504;13.438;2024-01-11T12:20:38;102462.00;;;3.80
71564;BMP180;59391;52.504;13.438;2024-01-11T12:23:04;102464.00;;;3.80
71564;BMP180;59391;52.504;13.438;2024-01-11T12:25:31;102458.00;;;3.80
71564;BMP180;59391;52.504;13.438;2024-01-11T12:27:57;102466.00;;;3.90
71564;BMP180;59391;52.504;13.438;2024-01-11T12:30:24;102462.00;;;3.90
71564;BMP180;59391;52.504;13.438;2024-01-11T12:32:50;102453.00;;;3.90
71564;BMP180;59391;52.504;13.438;2024-01-11T12:35:17;102448.00;;;4.00
71564;BMP180;59391;52.504;13.438;2024-01-11T12:37:55;102442.00;;;4.00
71564;BMP180;59391;52.504;13.438;2024-01-11T12:40:22;102433.00;;;4.00
71564;BMP180;59391;52.504;13.438;2024-01-11T12:42:49;102440.00;;;4.10
71564;BMP180;59391;52.504;13.438;2024-01-11T12:45:16;102431.00;;;4.10
71564;BMP180;59391;52.504;13.438;2024-01-11T12:47:43;102438.00;;;4.10
71564;BMP180;59391;52.504;13.438;2024-01-11T12:50:11;102440.00;;;4.10
71564;BMP180;59391;52.504;13.438;2024-01-11T12:52:38;102427.00;;;4.20
71564;BMP180;59391;52.504;13.438;2024-01-11T12:55:08;102444.00;;;4.20
71564;BMP180;59391;52.504;13.438;2024-01-11T12:57:43;102434.00;;;4.20
71564;BMP180;59391;52.504;13.438;2024-01-11T13:00:11;102428.00;;;4.20
71564;BMP180;59391;52.504;13.438;2024-01-11T13:02:37;102415.00;;;4.20
71564;BMP180;59391;52.504;13.438;2024-01-11T13:05:03;102405.00;;;4.20
71564;BMP180;59391;52.504;13.438;2024-01-11T13:07:30;102414.00;;;4.30
71564;BMP180;59391;52.504;13.438;2024-01-11T13:09:56;102411.00;;;4.30
71564;BMP180;59391;52.504;13.438;2024-01-11T13:12:22;102403.00;;;4.30
71564;BMP180;59391;52.504;13.438;2024-01-11T13:14:48;102407.00;;;4.30
71564;BMP180;59391;52.504;13.438;2024-01-11T13:17:14;102407.00;;;4.30
71564;BMP180;59391;52.504;13.438;2024-01-11T13:19:39;102386.00;;;4.30
71564;BMP180;59391;52.504;13.438;2024-01-11T13:22:05;102395.00;;;4.30
71564;BMP180;59391;52.504;13.438;2024-01-11T13:24:31;102396.00;;;4.30
71564;BMP180;59391;52.504;13.438;2024-01-11T13:26:56;102384.00;;;4.30
71564;BMP180;59391;52.504;13.438;2024-01-11T13:29:22;102377.00;;;4.30
71564;BMP180;59391;52.504;13.438;2024-01-11T13:31:48;102390.00;;;4.30
71564;BMP180;59391;52.504;13.438;2024-01-11T13:34:13;102384.00;;;4.20
71564;BMP180;59391;52.504;13.438;2024-01-11T13:36:39;102376.00;;;4.20
71564;BMP180;59391;52.504;13.438;2024-01-11T13:39:05;102362.00;;;4.20
71564;BMP180;59391;52.504;13.438;2024-01-11T13:41:33;102370.00;;;4.20
71564;BMP180;59391;52.504;13.438;2024-01-11T13:43:59;102368.00;;;4.20
71564;BMP180;59391;52.504;13.438;2024-01-11T13:46:25;102365.00;;;4.20
71564;BMP180;59391;52.504;13.438;2024-01-11T13:48:51;102358.00;;;4.20
71564;BMP180;59391;52.504;13.438;2024-01-11T13:51:17;102357.00;;;4.20
71564;BMP180;59391;52.504;13.438;2024-01-11T13:53:42;102354.00;;;4.20
71564;BMP180;59391;52.504;13.438;2024-01-11T13:56:08;102358.00;;;4.20
71564;BMP180;59391;52.504;13.438;2024-01-11T13:58:34;102347.00;;;4.20